Time;durP1;ratioP1;P1;durP2;ratioP2;P2;SDS_P1;SDS_P2;PMS_P1;PMS_P2;Temp;Humidity;BMP_temperature;BMP_pressure;BME280_temperature;BME280_humidity;BME280_pressure;Samples;Min_cycle;Max_cycle;Signal;HPM_P1;HPM_P2
2021/09/19 00:00:53;;;;;;;17.43;16.63;;;;;;;;;;5055999;28;20436;-94
2021/09/19 00:03:20;;;;;;;16.90;16.10;;;;;;;;;;5056798;28;20457;-93
2021/09/19 00:05:47;;;;;;;16.97;16.27;;;;;;;;;;5056610;28;20451;-93
2021/09/19 00:08:15;;;;;;;17.43;16.40;;;;;;;;;;5056920;28;20417;-93
2021/09/19 00:10:44;;;;;;;17.90;17.07;;;;;;;;;;5056175;28;20940;-93
2021/09/19 00:13:12;;;;;;;16.90;16.20;;;;;;;;;;5056614;28;20406;-93
2021/09/19 00:15:40;;;;;;;17.50;16.70;;;;;;;;;;5056173;28;20420;-94
2021/09/19 00:18:07;;;;;;;17.47;16.20;;;;;;;;;;5055511;28;20439;-94
2021/09/19 00:20:35;;;;;;;16.60;15.90;;;;;;;;;;5056928;28;20853;-94
2021/09/19 00:23:02;;;;;;;17.40;16.50;;;;;;;;;;5055158;28;20413;-93
2021/09/19 00:25:30;;;;;;;16.57;15.77;;;;;;;;;;5055749;28;20474;-93
2021/09/19 00:27:58;;;;;;;16.20;15.50;;;;;;;;;;5056343;28;20486;-93
2021/09/19 00:30:26;;;;;;;16.63;15.73;;;;;;;;;;5056067;28;20441;-93
2021/09/19 00:32:53;;;;;;;16.70;15.90;;;;;;;;;;5056571;28;20438;-94
2021/09/19 00:35:21;;;;;;;15.67;15.07;;;;;;;;;;5056832;28;20410;-93
2021/09/19 00:37:48;;;;;;;16.70;15.93;;;;;;;;;;5056054;28;20455;-93
2021/09/19 00:40:16;;;;;;;17.50;16.60;;;;;;;;;;5056185;28;20453;-93
2021/09/19 00:42:43;;;;;;;16.20;15.50;;;;;;;;;;5055654;28;20458;-95
2021/09/19 00:45:14;;;;;;;16.90;16.10;;;;;;;;;;5056066;28;20513;-93
2021/09/19 00:47:42;;;;;;;16.50;15.47;;;;;;;;;;5055779;28;20491;-94
2021/09/19 00:50:10;;;;;;;16.23;15.43;;;;;;;;;;5055927;28;20426;-94
2021/09/19 00:52:39;;;;;;;16.07;15.33;;;;;;;;;;5054789;28;20807;-93
2021/09/19 00:55:07;;;;;;;16.47;15.57;;;;;;;;;;5054759;28;20994;-94
2021/09/19 00:57:39;;;;;;;16.13;15.33;;;;;;;;;;5055276;28;20421;-94
2021/09/19 01:00:07;;;;;;;15.60;14.90;;;;;;;;;;5054391;28;20451;-94
2021/09/19 01:02:36;;;;;;;16.03;15.33;;;;;;;;;;5055573;28;20439;-93
2021/09/19 01:05:06;;;;;;;16.23;15.33;;;;;;;;;;5055691;28;20431;-94
2021/09/19 01:07:34;;;;;;;16.70;15.90;;;;;;;;;;5056179;28;20874;-94
2021/09/19 01:10:02;;;;;;;16.30;15.60;;;;;;;;;;5055104;28;20468;-93
2021/09/19 01:12:29;;;;;;;16.57;15.57;;;;;;;;;;5055456;28;20795;-94
2021/09/19 01:15:00;;;;;;;16.83;15.93;;;;;;;;;;5038536;28;20486;-93
2021/09/19 01:17:27;;;;;;;16.90;16.10;;;;;;;;;;5055443;28;20414;-93
2021/09/19 01:19:58;;;;;;;16.70;15.90;;;;;;;;;;5055027;28;20445;-93
2021/09/19 01:22:31;;;;;;;16.63;15.93;;;;;;;;;;5055421;28;20409;-94
2021/09/19 01:25:01;;;;;;;16.60;15.70;;;;;;;;;;5054855;28;20496;-94
2021/09/19 01:27:28;;;;;;;16.60;15.80;;;;;;;;;;5055021;28;20445;-93
2021/09/19 01:29:55;;;;;;;16.33;15.53;;;;;;;;;;5055055;28;20474;-94
2021/09/19 01:32:23;;;;;;;17.27;16.47;;;;;;;;;;5054737;28;20451;-93
2021/09/19 01:34:50;;;;;;;17.10;16.23;;;;;;;;;;5054673;28;20898;-94
2021/09/19 01:37:18;;;;;;;17.00;16.20;;;;;;;;;;5054423;28;20444;-94
2021/09/19 01:39:45;;;;;;;16.50;15.80;;;;;;;;;;5054756;28;20992;-93
2021/09/19 01:42:14;;;;;;;16.63;15.90;;;;;;;;;;5054822;28;20463;-93
2021/09/19 01:44:42;;;;;;;16.53;15.83;;;;;;;;;;5053920;28;20447;-94
2021/09/19 01:47:09;;;;;;;16.87;16.07;;;;;;;;;;5055373;28;20461;-94
2021/09/19 01:49:37;;;;;;;16.60;15.70;;;;;;;;;;5054469;28;20443;-92
2021/09/19 01:52:04;;;;;;;16.80;16.00;;;;;;;;;;5054979;28;20420;-93
2021/09/19 01:54:32;;;;;;;16.80;16.00;;;;;;;;;;5053695;28;20796;-93
2021/09/19 01:56:59;;;;;;;16.97;16.17;;;;;;;;;;5054672;28;20795;-94
2021/09/19 01:59:28;;;;;;;16.97;16.13;;;;;;;;;;5054369;28;20522;-93
2021/09/19 02:01:57;;;;;;;16.20;15.50;;;;;;;;;;5055194;28;20949;-93
2021/09/19 02:04:24;;;;;;;17.07;16.17;;;;;;;;;;5053670;28;20915;-93
2021/09/19 02:06:52;;;;;;;16.93;16.10;;;;;;;;;;5053341;28;20482;-93
2021/09/19 02:09:19;;;;;;;16.60;15.90;;;;;;;;;;5054643;28;20422;-93
2021/09/19 02:11:46;;;;;;;17.10;16.00;;;;;;;;;;5054441;28;20435;-94
2021/09/19 02:14:14;;;;;;;16.87;15.97;;;;;;;;;;5054205;28;20454;-93
2021/09/19 02:16:43;;;;;;;16.93;16.13;;;;;;;;;;5053399;28;20459;-93
2021/09/19 02:19:10;;;;;;;17.37;16.57;;;;;;;;;;5053107;28;20467;-93
2021/09/19 02:21:38;;;;;;;17.30;16.47;;;;;;;;;;5054337;28;20478;-94
2021/09/19 02:24:06;;;;;;;16.90;16.20;;;;;;;;;;5054036;28;20471;-92
2021/09/19 02:26:34;;;;;;;15.90;15.20;;;;;;;;;;5053970;28;20906;-93
2021/09/19 02:29:01;;;;;;;16.90;16.00;;;;;;;;;;5054120;28;20421;-93
2021/09/19 02:31:29;;;;;;;17.40;16.40;;;;;;;;;;5053276;28;20440;-94
2021/09/19 02:33:57;;;;;;;17.77;16.87;;;;;;;;;;5054249;28;20947;-93
2021/09/19 02:36:25;;;;;;;16.83;16.00;;;;;;;;;;5054280;28;20398;-93
2021/09/19 02:38:53;;;;;;;17.40;16.20;;;;;;;;;;5053215;28;20801;-94
2021/09/19 02:41:22;;;;;;;16.97;16.17;;;;;;;;;;5054101;28;20973;-92
2021/09/19 02:43:50;;;;;;;17.40;16.40;;;;;;;;;;5053986;28;20413;-93
2021/09/19 02:46:17;;;;;;;16.87;16.13;;;;;;;;;;5052890;28;20435;-94
2021/09/19 02:48:44;;;;;;;17.10;16.27;;;;;;;;;;5054479;28;20446;-94
2021/09/19 02:51:13;;;;;;;17.00;16.10;;;;;;;;;;5058038;28;20444;-94
2021/09/19 02:53:41;;;;;;;17.77;16.77;;;;;;;;;;5058015;28;20463;-93
2021/09/19 02:56:08;;;;;;;17.87;16.33;;;;;;;;;;5057678;28;20458;-93
2021/09/19 02:58:37;;;;;;;17.80;16.83;;;;;;;;;;5057555;28;20413;-93
2021/09/19 03:01:04;;;;;;;17.70;16.83;;;;;;;;;;5057127;28;20417;-94
2021/09/19 03:03:32;;;;;;;18.60;17.50;;;;;;;;;;5057829;28;20452;-93
2021/09/19 03:05:59;;;;;;;18.77;17.60;;;;;;;;;;5057667;28;20799;-94
2021/09/19 03:08:28;;;;;;;18.80;17.80;;;;;;;;;;5056328;28;20490;-94
2021/09/19 03:10:55;;;;;;;18.00;17.10;;;;;;;;;;5057448;28;20421;-94
2021/09/19 03:13:23;;;;;;;18.43;17.50;;;;;;;;;;5057730;28;20431;-93
2021/09/19 03:15:50;;;;;;;16.97;16.17;;;;;;;;;;5057621;28;20906;-94
2021/09/19 03:18:18;;;;;;;17.77;16.87;;;;;;;;;;5057373;28;20398;-93
2021/09/19 03:20:45;;;;;;;18.43;17.47;;;;;;;;;;5057614;28;20467;-93
2021/09/19 03:23:13;;;;;;;18.67;17.50;;;;;;;;;;5057052;28;20469;-93
2021/09/19 03:25:41;;;;;;;17.97;17.07;;;;;;;;;;5056073;28;20483;-94
2021/09/19 03:28:09;;;;;;;18.03;17.13;;;;;;;;;;5056971;28;20487;-93
2021/09/19 03:30:36;;;;;;;17.60;16.70;;;;;;;;;;5056937;28;20458;-94
2021/09/19 03:33:03;;;;;;;18.30;17.20;;;;;;;;;;5057008;28;20482;-93
2021/09/19 03:35:31;;;;;;;17.50;16.63;;;;;;;;;;5057104;28;20439;-94
2021/09/19 03:37:58;;;;;;;18.23;17.03;;;;;;;;;;5056962;28;20421;-94
2021/09/19 03:40:26;;;;;;;18.40;17.40;;;;;;;;;;5057460;28;20897;-91
2021/09/19 03:42:55;;;;;;;18.70;17.60;;;;;;;;;;5058122;28;20474;-91
2021/09/19 03:45:28;;;;;;;18.00;17.20;;;;;;;;;;5057033;28;20960;-92
2021/09/19 03:47:56;;;;;;;18.07;17.07;;;;;;;;;;5055824;28;20489;-91
2021/09/19 03:50:23;;;;;;;18.07;17.23;;;;;;;;;;5056537;28;20486;-91
2021/09/19 03:52:51;;;;;;;17.90;17.00;;;;;;;;;;5056874;28;20450;-91
2021/09/19 03:55:18;;;;;;;18.67;17.67;;;;;;;;;;5055522;28;20414;-92
2021/09/19 03:57:46;;;;;;;18.30;17.30;;;;;;;;;;5056525;28;20463;-90
2021/09/19 04:00:15;;;;;;;18.00;17.00;;;;;;;;;;5056152;28;20504;-92
2021/09/19 04:02:42;;;;;;;19.07;17.63;;;;;;;;;;5056865;28;20416;-92
2021/09/19 04:05:10;;;;;;;19.73;18.73;;;;;;;;;;5057331;28;20439;-91
2021/09/19 04:07:38;;;;;;;17.93;17.00;;;;;;;;;;5056943;28;20792;-91
2021/09/19 04:10:06;;;;;;;18.83;17.73;;;;;;;;;;5056326;28;20972;-92
2021/09/19 04:12:34;;;;;;;17.87;16.93;;;;;;;;;;5056757;28;20425;-92
2021/09/19 04:15:01;;;;;;;18.20;17.20;;;;;;;;;;5057219;28;20413;-92
2021/09/19 04:17:30;;;;;;;18.23;17.13;;;;;;;;;;5056843;28;20888;-92
2021/09/19 04:19:57;;;;;;;18.40;17.20;;;;;;;;;;5056379;28;20414;-92
2021/09/19 04:22:25;;;;;;;19.23;18.10;;;;;;;;;;5056434;28;20454;-91
2021/09/19 04:24:52;;;;;;;18.90;17.90;;;;;;;;;;5056430;28;20486;-92
2021/09/19 04:27:20;;;;;;;18.37;17.47;;;;;;;;;;5056262;28;20973;-92
2021/09/19 04:29:47;;;;;;;19.13;18.13;;;;;;;;;;5056372;28;20456;-91
2021/09/19 04:32:14;;;;;;;17.53;16.73;;;;;;;;;;5056284;28;20430;-92
2021/09/19 04:34:43;;;;;;;19.47;18.27;;;;;;;;;;5056282;28;20418;-92
2021/09/19 04:37:13;;;;;;;18.23;17.03;;;;;;;;;;5056214;28;20813;-92
2021/09/19 04:39:41;;;;;;;19.53;18.53;;;;;;;;;;5056099;28;20512;-92
2021/09/19 04:42:10;;;;;;;18.57;17.60;;;;;;;;;;5055892;28;20465;-91
2021/09/19 04:44:37;;;;;;;19.23;18.13;;;;;;;;;;5056875;28;20446;-91
2021/09/19 04:47:04;;;;;;;18.17;17.17;;;;;;;;;;5056384;28;20450;-91
2021/09/19 04:49:32;;;;;;;18.93;17.80;;;;;;;;;;5055605;28;20422;-91
2021/09/19 04:52:01;;;;;;;18.40;17.30;;;;;;;;;;5056296;28;20783;-92
2021/09/19 04:54:28;;;;;;;18.13;17.17;;;;;;;;;;5054634;28;20443;-90
2021/09/19 04:56:55;;;;;;;17.90;17.00;;;;;;;;;;5055889;28;20766;-89
2021/09/19 04:59:23;;;;;;;18.90;17.70;;;;;;;;;;5055742;28;20792;-94
2021/09/19 05:01:50;;;;;;;18.07;17.17;;;;;;;;;;5054645;28;20413;-88
2021/09/19 05:04:18;;;;;;;18.40;17.33;;;;;;;;;;5055532;28;20446;-87
2021/09/19 05:06:45;;;;;;;18.80;17.80;;;;;;;;;;5054468;28;20450;-87
2021/09/19 05:09:15;;;;;;;18.00;17.10;;;;;;;;;;5055467;28;20853;-89
2021/09/19 05:11:43;;;;;;;18.90;17.90;;;;;;;;;;5053790;28;20842;-88
2021/09/19 05:14:10;;;;;;;18.50;17.20;;;;;;;;;;5054697;28;20440;-88
2021/09/19 05:16:38;;;;;;;18.67;17.37;;;;;;;;;;5055288;28;20410;-88
2021/09/19 05:19:06;;;;;;;17.90;17.00;;;;;;;;;;5055311;28;20570;-86
2021/09/19 05:21:33;;;;;;;19.20;18.10;;;;;;;;;;5055394;28;20470;-87
2021/09/19 05:24:01;;;;;;;19.70;18.50;;;;;;;;;;5055127;28;20419;-87
2021/09/19 05:26:30;;;;;;;18.53;17.47;;;;;;;;;;5054338;28;20413;-88
2021/09/19 05:28:57;;;;;;;18.70;17.70;;;;;;;;;;5054831;28;20458;-89
2021/09/19 05:31:25;;;;;;;20.07;18.87;;;;;;;;;;5054317;28;20420;-89
2021/09/19 05:33:52;;;;;;;18.50;17.40;;;;;;;;;;5053900;28;20514;-90
2021/09/19 05:36:19;;;;;;;18.63;17.70;;;;;;;;;;5054428;28;20447;-90
2021/09/19 05:38:46;;;;;;;18.23;17.13;;;;;;;;;;5054581;28;20467;-89
2021/09/19 05:41:14;;;;;;;18.67;17.47;;;;;;;;;;5054419;28;20402;-86
2021/09/19 05:43:43;;;;;;;18.27;17.07;;;;;;;;;;5054321;28;20434;-86
2021/09/19 05:46:11;;;;;;;18.27;17.13;;;;;;;;;;5054746;28;20417;-87
2021/09/19 05:48:39;;;;;;;19.53;18.33;;;;;;;;;;5054465;28;20482;-90
2021/09/19 05:51:06;;;;;;;19.77;18.67;;;;;;;;;;5054206;28;20414;-89
2021/09/19 05:53:34;;;;;;;18.23;17.23;;;;;;;;;;5054561;28;20438;-87
2021/09/19 05:56:01;;;;;;;19.30;18.30;;;;;;;;;;5054575;28;20447;-87
2021/09/19 05:58:29;;;;;;;19.47;18.40;;;;;;;;;;5053464;28;20888;-87
2021/09/19 06:00:57;;;;;;;19.50;18.40;;;;;;;;;;5054648;28;20451;-89
2021/09/19 06:03:25;;;;;;;18.67;17.47;;;;;;;;;;5053140;28;20825;-89
2021/09/19 06:05:52;;;;;;;18.97;17.97;;;;;;;;;;5054838;28;20443;-87
2021/09/19 06:08:20;;;;;;;18.50;17.60;;;;;;;;;;5054458;28;20476;-87
2021/09/19 06:10:47;;;;;;;18.63;17.63;;;;;;;;;;5054364;28;20443;-87
2021/09/19 06:13:14;;;;;;;18.93;17.83;;;;;;;;;;5054203;28;20445;-87
2021/09/19 06:15:42;;;;;;;19.27;18.03;;;;;;;;;;5054144;28;20442;-87
2021/09/19 06:18:11;;;;;;;18.93;17.70;;;;;;;;;;5054370;28;20463;-87
2021/09/19 06:20:39;;;;;;;18.73;17.67;;;;;;;;;;5054613;28;20527;-87
2021/09/19 06:23:06;;;;;;;18.57;17.30;;;;;;;;;;5054207;28;20766;-87
2021/09/19 06:25:34;;;;;;;20.13;18.53;;;;;;;;;;5052685;28;20798;-89
2021/09/19 06:28:01;;;;;;;19.20;18.10;;;;;;;;;;5055114;28;20502;-85
2021/09/19 06:30:29;;;;;;;19.67;18.67;;;;;;;;;;5054902;28;20416;-85
2021/09/19 06:32:56;;;;;;;19.70;18.50;;;;;;;;;;5053980;28;20813;-87
2021/09/19 06:35:26;;;;;;;20.67;18.80;;;;;;;;;;5054281;28;20438;-86
2021/09/19 06:37:53;;;;;;;18.90;18.00;;;;;;;;;;5053809;28;20403;-88
2021/09/19 06:40:21;;;;;;;19.07;18.07;;;;;;;;;;5053277;28;20418;-87
2021/09/19 06:42:48;;;;;;;19.00;17.90;;;;;;;;;;5054240;28;20922;-87
2021/09/19 06:45:16;;;;;;;19.57;18.53;;;;;;;;;;5053662;28;20439;-87
2021/09/19 06:47:43;;;;;;;19.83;18.77;;;;;;;;;;5054400;28;20454;-88
2021/09/19 06:50:12;;;;;;;19.90;18.80;;;;;;;;;;5054796;28;20430;-86
2021/09/19 06:52:40;;;;;;;19.03;18.13;;;;;;;;;;5054369;28;20443;-85
2021/09/19 06:55:09;;;;;;;19.57;18.57;;;;;;;;;;5053844;28;20928;-86
2021/09/19 06:57:36;;;;;;;19.73;18.73;;;;;;;;;;5053541;28;20825;-86
2021/09/19 07:00:04;;;;;;;20.00;18.70;;;;;;;;;;5054202;28;20439;-88
2021/09/19 07:02:32;;;;;;;20.13;19.13;;;;;;;;;;5054234;28;20447;-86
2021/09/19 07:04:59;;;;;;;19.20;18.20;;;;;;;;;;5054668;28;20814;-87
2021/09/19 07:07:27;;;;;;;19.30;18.20;;;;;;;;;;5053488;28;20469;-90
2021/09/19 07:09:56;;;;;;;20.00;19.00;;;;;;;;;;5054003;28;20466;-91
2021/09/19 07:12:23;;;;;;;20.00;19.00;;;;;;;;;;5054055;28;20442;-88
2021/09/19 07:14:50;;;;;;;19.20;18.20;;;;;;;;;;5053844;28;20451;-87
2021/09/19 07:17:18;;;;;;;18.90;17.90;;;;;;;;;;5053421;28;20431;-89
2021/09/19 07:19:45;;;;;;;18.50;17.60;;;;;;;;;;5053463;28;20971;-87
2021/09/19 07:22:13;;;;;;;19.87;18.63;;;;;;;;;;5053793;28;20772;-89
2021/09/19 07:24:40;;;;;;;18.63;17.67;;;;;;;;;;5053726;28;20480;-89
2021/09/19 07:27:09;;;;;;;18.73;17.83;;;;;;;;;;5053684;28;20451;-88
2021/09/19 07:29:37;;;;;;;19.33;18.33;;;;;;;;;;5053654;28;20474;-90
2021/09/19 07:32:07;;;;;;;18.73;17.73;;;;;;;;;;5053543;28;20787;-90
2021/09/19 07:34:35;;;;;;;18.20;17.30;;;;;;;;;;5053304;28;20430;-89
2021/09/19 07:37:03;;;;;;;18.17;17.17;;;;;;;;;;5055308;28;20478;-87
2021/09/19 07:39:31;;;;;;;17.97;17.13;;;;;;;;;;5057240;28;20444;-88
2021/09/19 07:41:58;;;;;;;18.20;17.10;;;;;;;;;;5057208;28;20424;-89
2021/09/19 07:44:29;;;;;;;18.47;17.47;;;;;;;;;;5057170;28;20410;-88
2021/09/19 07:46:56;;;;;;;19.67;18.47;;;;;;;;;;5057270;28;20425;-89
2021/09/19 07:49:25;;;;;;;18.00;17.10;;;;;;;;;;5056801;28;20824;-88
2021/09/19 07:51:52;;;;;;;18.57;17.70;;;;;;;;;;5057735;28;20800;-89
2021/09/19 07:54:20;;;;;;;18.20;17.10;;;;;;;;;;5057086;28;20411;-94
2021/09/19 07:56:48;;;;;;;18.60;17.70;;;;;;;;;;5055769;28;20418;-89
2021/09/19 07:59:16;;;;;;;18.53;17.30;;;;;;;;;;5055655;28;20473;-88
2021/09/19 08:01:45;;;;;;;19.03;17.90;;;;;;;;;;5057007;28;20474;-89
2021/09/19 08:04:13;;;;;;;19.50;18.50;;;;;;;;;;5056888;28;20427;-89
2021/09/19 08:06:40;;;;;;;19.57;18.67;;;;;;;;;;5056908;28;20447;-89
2021/09/19 08:09:07;;;;;;;21.20;20.00;;;;;;;;;;5056492;28;20467;-90
2021/09/19 08:11:35;;;;;;;19.13;17.87;;;;;;;;;;5056806;28;20894;-90
2021/09/19 08:14:06;;;;;;;19.30;18.30;;;;;;;;;;5057104;28;20757;-90
2021/09/19 08:16:34;;;;;;;19.80;18.70;;;;;;;;;;5056979;28;20432;-88
2021/09/19 08:19:03;;;;;;;23.10;21.70;;;;;;;;;;5055307;28;20420;-88
2021/09/19 08:21:30;;;;;;;23.20;21.90;;;;;;;;;;5056057;28;20470;-88
2021/09/19 08:23:58;;;;;;;19.77;18.67;;;;;;;;;;5056378;28;20461;-88
2021/09/19 08:26:25;;;;;;;21.00;19.90;;;;;;;;;;5055970;28;20425;-89
2021/09/19 08:28:53;;;;;;;20.30;19.20;;;;;;;;;;5056303;28;20484;-88
2021/09/19 08:31:20;;;;;;;20.77;19.67;;;;;;;;;;5055362;28;20428;-88
2021/09/19 08:33:47;;;;;;;19.20;18.20;;;;;;;;;;5056186;28;20435;-88
2021/09/19 08:36:18;;;;;;;19.97;18.90;;;;;;;;;;5056224;28;20487;-89
2021/09/19 08:38:45;;;;;;;20.27;19.17;;;;;;;;;;5056086;28;20445;-89
2021/09/19 08:41:15;;;;;;;21.77;20.57;;;;;;;;;;5056264;28;20414;-88
2021/09/19 08:43:43;;;;;;;19.90;18.90;;;;;;;;;;5057134;28;20436;-89
2021/09/19 08:46:11;;;;;;;21.00;19.70;;;;;;;;;;5055512;28;20439;-89
2021/09/19 08:48:40;;;;;;;20.70;19.60;;;;;;;;;;5054387;28;20459;-88
2021/09/19 08:51:07;;;;;;;21.23;19.83;;;;;;;;;;5055910;28;20443;-89
2021/09/19 08:53:36;;;;;;;20.50;19.20;;;;;;;;;;5055961;28;20436;-89
2021/09/19 08:56:05;;;;;;;20.07;18.70;;;;;;;;;;5055484;28;20439;-88
2021/09/19 08:58:33;;;;;;;20.37;19.07;;;;;;;;;;5054417;28;20514;-89
2021/09/19 09:01:01;;;;;;;21.67;20.37;;;;;;;;;;5055604;28;20808;-89
2021/09/19 09:03:29;;;;;;;20.13;19.03;;;;;;;;;;5055534;28;20913;-88
2021/09/19 09:05:57;;;;;;;19.03;18.13;;;;;;;;;;5054328;28;20760;-87
2021/09/19 09:08:26;;;;;;;19.60;18.60;;;;;;;;;;5055617;28;20418;-88
2021/09/19 09:10:56;;;;;;;19.70;18.60;;;;;;;;;;5055587;28;20429;-89
2021/09/19 09:13:24;;;;;;;19.70;18.60;;;;;;;;;;5055881;28;20456;-88
2021/09/19 09:15:53;;;;;;;19.67;18.67;;;;;;;;;;5056099;28;20451;-90
2021/09/19 09:18:29;;;;;;;20.57;18.70;;;;;;;;;;5055362;28;20439;-88
2021/09/19 09:20:58;;;;;;;19.47;18.33;;;;;;;;;;5055377;28;20988;-88
2021/09/19 09:23:27;;;;;;;19.43;18.10;;;;;;;;;;5054947;28;20434;-89
2021/09/19 09:26:12;;;;;;;19.97;18.87;;;;;;;;;;5054497;28;20483;-88
2021/09/19 09:28:42;;;;;;;19.60;18.50;;;;;;;;;;5055043;28;20472;-88
2021/09/19 09:31:10;;;;;;;19.60;18.50;;;;;;;;;;5054785;28;20452;-87
2021/09/19 09:33:37;;;;;;;19.77;18.67;;;;;;;;;;5055011;28;20438;-88
2021/09/19 09:36:08;;;;;;;19.73;18.63;;;;;;;;;;5055007;28;20447;-88
2021/09/19 09:38:36;;;;;;;19.77;18.77;;;;;;;;;;5051553;28;21053;-88
2021/09/19 09:41:05;;;;;;;19.10;18.10;;;;;;;;;;5055115;28;20439;-87
2021/09/19 09:43:32;;;;;;;21.23;19.93;;;;;;;;;;5055017;28;20440;-88
2021/09/19 09:46:11;;;;;;;19.97;18.77;;;;;;;;;;5054816;28;20448;-88
2021/09/19 09:48:42;;;;;;;21.40;20.20;;;;;;;;;;5054811;28;20488;-88
2021/09/19 09:51:24;;;;;;;23.30;21.77;;;;;;;;;;5054677;28;20446;-88
2021/09/19 09:53:55;;;;;;;22.20;21.00;;;;;;;;;;5052725;28;20455;-88
2021/09/19 09:56:24;;;;;;;20.80;19.70;;;;;;;;;;5054236;28;20503;-88
2021/09/19 09:58:53;;;;;;;22.20;20.33;;;;;;;;;;5053899;28;20485;-88
2021/09/19 10:01:22;;;;;;;21.80;20.60;;;;;;;;;;5054651;28;20896;-88
2021/09/19 10:03:50;;;;;;;21.03;19.93;;;;;;;;;;5054184;28;20436;-88
2021/09/19 10:06:17;;;;;;;21.27;20.07;;;;;;;;;;5054635;28;20431;-88
2021/09/19 10:08:45;;;;;;;21.23;20.00;;;;;;;;;;5054383;28;20422;-88
2021/09/19 10:11:12;;;;;;;20.67;19.47;;;;;;;;;;5054468;28;20964;-88
2021/09/19 10:13:44;;;;;;;20.63;19.53;;;;;;;;;;5054607;28;20412;-88
2021/09/19 10:16:13;;;;;;;21.13;19.93;;;;;;;;;;5054487;28;20442;-88
2021/09/19 10:18:46;;;;;;;21.30;20.10;;;;;;;;;;5053292;28;20497;-89
2021/09/19 10:21:15;;;;;;;21.07;19.97;;;;;;;;;;5054451;28;20947;-87
2021/09/19 10:23:44;;;;;;;21.20;19.90;;;;;;;;;;5053647;28;20440;-88
2021/09/19 10:26:13;;;;;;;20.30;19.10;;;;;;;;;;5053831;28;20902;-88
2021/09/19 10:28:41;;;;;;;20.20;19.10;;;;;;;;;;5054311;28;20822;-89
2021/09/19 10:31:31;;;;;;;20.93;19.40;;;;;;;;;;5053513;28;20502;-88
2021/09/19 10:34:01;;;;;;;19.90;18.70;;;;;;;;;;5051125;28;20461;-88
2021/09/19 10:36:30;;;;;;;21.10;19.90;;;;;;;;;;5054717;28;20761;-88
2021/09/19 10:39:14;;;;;;;21.87;20.50;;;;;;;;;;5054235;28;20759;-88
2021/09/19 10:41:56;;;;;;;20.80;19.70;;;;;;;;;;5053967;28;20521;-88
2021/09/19 10:44:33;;;;;;;22.57;21.00;;;;;;;;;;5053254;28;20441;-88
2021/09/19 10:47:05;;;;;;;24.00;22.60;;;;;;;;;;5054030;28;20442;-88
2021/09/19 10:49:35;;;;;;;23.70;22.40;;;;;;;;;;5054077;28;20461;-88
2021/09/19 10:52:09;;;;;;;23.00;21.77;;;;;;;;;;5054128;28;20442;-88
2021/09/19 10:54:47;;;;;;;22.60;21.17;;;;;;;;;;5053760;28;20466;-88
2021/09/19 10:57:15;;;;;;;21.77;20.57;;;;;;;;;;5085648;23;20467;-88
2021/09/19 11:00:00;;;;;;;22.60;21.27;;;;;;;;;;5094011;28;20453;-90
2021/09/19 11:02:29;;;;;;;22.27;21.07;;;;;;;;;;5094288;28;20735;-89
2021/09/19 11:05:11;;;;;;;22.43;21.03;;;;;;;;;;5094330;28;20428;-88
2021/09/19 11:07:42;;;;;;;21.33;20.23;;;;;;;;;;5093119;28;20454;-89
2021/09/19 11:10:10;;;;;;;22.73;21.37;;;;;;;;;;5076490;28;20476;-89
2021/09/19 11:12:44;;;;;;;22.20;21.00;;;;;;;;;;5097784;28;20921;-88
2021/09/19 11:15:14;;;;;;;22.03;20.83;;;;;;;;;;5080317;28;20431;-88
2021/09/19 11:17:45;;;;;;;21.50;20.10;;;;;;;;;;5098137;28;20482;-89
2021/09/19 11:20:24;;;;;;;21.50;20.10;;;;;;;;;;5088956;28;20794;-89
2021/09/19 11:22:53;;;;;;;22.20;20.57;;;;;;;;;;5077905;28;20434;-90
2021/09/19 11:25:22;;;;;;;21.60;20.40;;;;;;;;;;5077543;28;20913;-90
2021/09/19 11:27:51;;;;;;;22.60;21.30;;;;;;;;;;5077387;28;20422;-89
2021/09/19 11:30:21;;;;;;;20.77;19.60;;;;;;;;;;5077391;28;20494;-87
2021/09/19 11:32:49;;;;;;;23.43;21.97;;;;;;;;;;5077229;28;20406;-91
2021/09/19 11:35:16;;;;;;;27.70;26.00;;;;;;;;;;5077338;28;20432;-91
2021/09/19 11:37:45;;;;;;;27.67;25.73;;;;;;;;;;5077552;28;20440;-92
2021/09/19 11:40:23;;;;;;;29.60;27.50;;;;;;;;;;5077627;28;20408;-91
2021/09/19 11:42:53;;;;;;;23.53;22.13;;;;;;;;;;5078642;28;20464;-90
2021/09/19 11:45:23;;;;;;;21.73;20.53;;;;;;;;;;5061108;28;20451;-88
2021/09/19 11:47:52;;;;;;;21.60;20.17;;;;;;;;;;5077435;28;20445;-88
2021/09/19 11:50:23;;;;;;;23.77;22.30;;;;;;;;;;5076526;28;20549;-89
2021/09/19 11:52:52;;;;;;;21.47;20.27;;;;;;;;;;5076996;28;20914;-90
2021/09/19 11:55:22;;;;;;;21.77;20.57;;;;;;;;;;5076935;28;20759;-90
2021/09/19 11:57:50;;;;;;;22.60;21.23;;;;;;;;;;5076855;28;20480;-90
2021/09/19 12:00:17;;;;;;;21.30;20.10;;;;;;;;;;5077003;28;20446;-91
2021/09/19 12:02:46;;;;;;;21.93;20.63;;;;;;;;;;5076691;28;20442;-90
2021/09/19 12:05:16;;;;;;;21.53;20.33;;;;;;;;;;5060017;28;20442;-91
2021/09/19 12:07:44;;;;;;;21.53;20.33;;;;;;;;;;5058969;28;20838;-91
2021/09/19 12:10:11;;;;;;;21.93;20.63;;;;;;;;;;5077104;28;20488;-91
2021/09/19 12:12:41;;;;;;;21.20;19.97;;;;;;;;;;5059045;28;20454;-91
2021/09/19 12:15:09;;;;;;;22.80;21.30;;;;;;;;;;5076084;28;20466;-91
2021/09/19 12:17:37;;;;;;;21.70;20.30;;;;;;;;;;5076495;28;20437;-91
2021/09/19 12:20:07;;;;;;;20.70;19.50;;;;;;;;;;5077291;28;20903;-90
2021/09/19 12:22:35;;;;;;;21.60;20.40;;;;;;;;;;5058365;28;20922;-91
2021/09/19 12:25:03;;;;;;;21.37;20.20;;;;;;;;;;5076747;28;20437;-90
2021/09/19 12:27:31;;;;;;;21.63;20.43;;;;;;;;;;5076151;28;20914;-90
2021/09/19 12:30:02;;;;;;;22.40;21.00;;;;;;;;;;5076080;28;20969;-90
2021/09/19 12:32:40;;;;;;;22.73;21.43;;;;;;;;;;5076532;28;20907;-90
2021/09/19 12:35:08;;;;;;;22.47;21.27;;;;;;;;;;5076265;28;20406;-90
2021/09/19 12:37:36;;;;;;;22.23;21.03;;;;;;;;;;5076124;28;20911;-90
2021/09/19 12:40:07;;;;;;;22.90;21.60;;;;;;;;;;5076238;28;20443;-90
2021/09/19 12:42:34;;;;;;;28.70;27.03;;;;;;;;;;5076049;28;20417;-90
2021/09/19 12:45:08;;;;;;;22.60;21.30;;;;;;;;;;5075985;28;20405;-90
2021/09/19 12:47:37;;;;;;;23.03;21.73;;;;;;;;;;5075699;28;20509;-89
2021/09/19 12:50:10;;;;;;;27.90;26.20;;;;;;;;;;5075828;28;20475;-90
2021/09/19 12:52:37;;;;;;;27.90;26.10;;;;;;;;;;5075842;28;20462;-90
2021/09/19 12:55:05;;;;;;;22.10;20.80;;;;;;;;;;5075996;28;20455;-90
2021/09/19 12:57:33;;;;;;;24.87;23.23;;;;;;;;;;5063225;28;20483;-89
2021/09/19 13:00:01;;;;;;;22.53;21.13;;;;;;;;;;5075881;28;20914;-90
2021/09/19 13:02:33;;;;;;;23.07;21.67;;;;;;;;;;5075906;28;20418;-90
2021/09/19 13:05:00;;;;;;;22.80;21.40;;;;;;;;;;5076547;28;20782;-90
2021/09/19 13:07:28;;;;;;;24.47;23.07;;;;;;;;;;5075535;28;20926;-90
2021/09/19 13:09:55;;;;;;;23.00;21.70;;;;;;;;;;5074656;28;20948;-90
2021/09/19 13:12:23;;;;;;;22.47;21.10;;;;;;;;;;5075570;28;20444;-90
2021/09/19 13:14:50;;;;;;;23.17;21.90;;;;;;;;;;5076183;28;20459;-90
2021/09/19 13:17:17;;;;;;;22.00;20.70;;;;;;;;;;5075624;28;20433;-90
2021/09/19 13:19:49;;;;;;;21.63;20.43;;;;;;;;;;5075715;28;20481;-90
2021/09/19 13:22:18;;;;;;;22.73;21.43;;;;;;;;;;5074271;28;20442;-90
2021/09/19 13:24:45;;;;;;;22.53;21.30;;;;;;;;;;5075329;28;20498;-90
2021/09/19 13:27:14;;;;;;;21.83;20.63;;;;;;;;;;5074894;28;20428;-90
2021/09/19 13:29:41;;;;;;;22.10;20.80;;;;;;;;;;5075090;28;20438;-90
2021/09/19 13:32:08;;;;;;;22.57;21.27;;;;;;;;;;5075249;28;20455;-90
2021/09/19 13:34:36;;;;;;;22.73;21.43;;;;;;;;;;5074244;28;20467;-90
2021/09/19 13:37:04;;;;;;;22.53;21.27;;;;;;;;;;5075172;28;20462;-90
2021/09/19 13:39:33;;;;;;;21.70;20.40;;;;;;;;;;5074781;28;20407;-90
2021/09/19 13:42:01;;;;;;;22.97;21.47;;;;;;;;;;5075269;28;20460;-90
2021/09/19 13:44:28;;;;;;;24.17;22.77;;;;;;;;;;5074907;28;20475;-90
2021/09/19 13:46:56;;;;;;;22.77;21.47;;;;;;;;;;5074927;28;20781;-89
2021/09/19 13:49:24;;;;;;;22.83;21.30;;;;;;;;;;5074689;28;20517;-89
2021/09/19 13:51:52;;;;;;;22.60;21.30;;;;;;;;;;5074489;28;20451;-90
2021/09/19 13:54:21;;;;;;;23.00;21.57;;;;;;;;;;5075166;28;20844;-91
2021/09/19 13:56:49;;;;;;;21.63;20.53;;;;;;;;;;5074710;28;20458;-91
2021/09/19 13:59:17;;;;;;;21.30;20.20;;;;;;;;;;5074802;28;20420;-90
2021/09/19 14:01:44;;;;;;;22.00;20.80;;;;;;;;;;5074521;28;20405;-91
2021/09/19 14:04:12;;;;;;;21.93;20.43;;;;;;;;;;5074677;28;20418;-91
2021/09/19 14:06:39;;;;;;;23.83;22.43;;;;;;;;;;5074189;28;20458;-90
2021/09/19 14:09:07;;;;;;;24.47;23.03;;;;;;;;;;5074674;28;20441;-91
2021/09/19 14:11:37;;;;;;;21.83;20.63;;;;;;;;;;5074490;28;20480;-90
2021/09/19 14:14:05;;;;;;;23.20;21.80;;;;;;;;;;5074651;28;20407;-90
2021/09/19 14:16:33;;;;;;;22.17;20.97;;;;;;;;;;5074171;28;20790;-91
2021/09/19 14:19:01;;;;;;;21.57;20.40;;;;;;;;;;5074285;28;20449;-89
2021/09/19 14:21:29;;;;;;;22.40;21.10;;;;;;;;;;5074631;28;20431;-90
2021/09/19 14:23:56;;;;;;;22.10;20.90;;;;;;;;;;5074471;28;20418;-90